createdAt,value
2019-02-14T00:01:39.300Z,16.93
2019-02-14T00:04:07.566Z,16.17
2019-02-14T00:06:35.827Z,15.23
2019-02-14T00:09:04.853Z,19.10
2019-02-14T00:11:33.110Z,15.00
2019-02-14T00:14:01.383Z,18.35
2019-02-14T00:16:29.664Z,18.23
2019-02-14T00:18:57.913Z,16.52
2019-02-14T00:21:26.203Z,17.52
2019-02-14T00:23:54.704Z,17.57
2019-02-14T00:26:23.002Z,15.70
2019-02-14T00:28:51.260Z,16.10
2019-02-14T00:31:19.511Z,17.07
2019-02-14T00:33:47.786Z,12.58
2019-02-14T00:36:16.082Z,14.03
2019-02-14T00:38:44.334Z,15.65
2019-02-14T00:41:12.604Z,15.72
2019-02-14T00:43:40.886Z,14.55
2019-02-14T00:46:09.156Z,13.43
2019-02-14T00:48:37.408Z,14.35
2019-02-14T00:51:05.692Z,14.58
2019-02-14T00:53:33.940Z,14.35
2019-02-14T00:56:02.230Z,15.90
2019-02-14T00:58:30.483Z,14.98
2019-02-14T01:00:58.768Z,13.10
2019-02-14T01:03:27.026Z,15.05
2019-02-14T01:05:55.315Z,13.40
2019-02-14T01:08:23.574Z,14.18
2019-02-14T01:10:51.861Z,14.70
2019-02-14T01:13:20.493Z,13.62
2019-02-14T01:15:48.813Z,17.73
2019-02-14T01:18:17.110Z,13.10
2019-02-14T01:20:45.367Z,11.97
2019-02-14T01:23:13.637Z,12.18
2019-02-14T01:25:41.889Z,14.98
2019-02-14T01:28:10.174Z,12.13
2019-02-14T01:30:38.456Z,12.58
2019-02-14T01:33:06.708Z,15.78
2019-02-14T01:35:41.869Z,12.93
2019-02-14T01:38:04.977Z,15.53
2019-02-14T01:40:33.269Z,16.57
2019-02-14T01:43:01.578Z,14.18
2019-02-14T01:45:29.895Z,14.65
2019-02-14T01:47:58.149Z,14.70
2019-02-14T01:50:26.427Z,13.98
2019-02-14T01:52:54.684Z,15.00
2019-02-14T01:55:22.982Z,18.10
2019-02-14T01:57:51.265Z,16.77
2019-02-14T02:00:19.692Z,14.70
2019-02-14T02:02:47.986Z,14.30
2019-02-14T02:05:16.242Z,12.05
2019-02-14T02:07:44.571Z,13.72
2019-02-14T02:10:13.177Z,14.00
2019-02-14T02:12:41.444Z,13.08
2019-02-14T02:15:12.251Z,12.78
2019-02-14T02:17:40.507Z,14.85
2019-02-14T02:20:10.031Z,15.40
2019-02-14T02:22:38.288Z,13.43
2019-02-14T02:25:09.409Z,14.10
2019-02-14T02:27:37.686Z,13.58
2019-02-14T02:30:12.060Z,12.95
2019-02-14T02:32:40.329Z,15.35
2019-02-14T02:35:09.052Z,16.90
2019-02-14T02:37:37.327Z,16.52
2019-02-14T02:40:08.097Z,17.23
2019-02-14T02:42:36.370Z,17.17
2019-02-14T02:45:07.765Z,14.70
2019-02-14T02:47:36.059Z,18.80
2019-02-14T02:50:05.432Z,15.23
2019-02-14T02:52:33.691Z,17.92
2019-02-14T02:55:01.980Z,13.68
2019-02-14T02:57:30.266Z,14.13
2019-02-14T02:59:58.530Z,12.25
2019-02-14T03:02:26.787Z,12.47
2019-02-14T03:04:55.138Z,14.98
2019-02-14T03:07:23.474Z,15.15
2019-02-14T03:09:51.746Z,14.20
2019-02-14T03:12:20.044Z,18.52
2019-02-14T03:14:48.330Z,13.98
2019-02-14T03:17:16.601Z,14.78
2019-02-14T03:19:44.858Z,16.30
2019-02-14T03:22:13.108Z,14.63
2019-02-14T03:24:41.391Z,17.80
2019-02-14T03:27:09.648Z,13.40
2019-02-14T03:29:37.938Z,17.50
2019-02-14T03:32:06.188Z,14.00
2019-02-14T03:34:34.468Z,15.00
2019-02-14T03:37:02.721Z,15.13
2019-02-14T03:39:30.983Z,16.55
2019-02-14T03:41:59.267Z,18.48
2019-02-14T03:44:27.521Z,15.63
2019-02-14T03:46:55.773Z,16.48
2019-02-14T03:49:24.056Z,18.92
2019-02-14T03:51:52.321Z,16.57
2019-02-14T03:54:20.622Z,17.00
2019-02-14T03:56:48.903Z,19.80
2019-02-14T03:59:17.217Z,15.15
2019-02-14T04:01:45.476Z,15.25
2019-02-14T04:04:13.721Z,16.70
2019-02-14T04:06:41.993Z,16.50
2019-02-14T04:09:10.310Z,17.00
2019-02-14T04:11:38.564Z,19.32
2019-02-14T04:14:06.810Z,15.72
2019-02-14T04:16:35.100Z,15.90
2019-02-14T04:19:03.369Z,21.23
2019-02-14T04:21:31.660Z,15.60
2019-02-14T04:24:00.017Z,18.60
2019-02-14T04:26:28.276Z,21.15
2019-02-14T04:28:56.541Z,17.27
2019-02-14T04:31:24.828Z,18.07
2019-02-14T04:33:53.092Z,17.45
2019-02-14T04:36:21.383Z,18.65
2019-02-14T04:38:49.643Z,19.30
2019-02-14T04:41:17.897Z,19.15
2019-02-14T04:43:46.218Z,17.80
2019-02-14T04:46:14.476Z,20.02
2019-02-14T04:48:43.137Z,16.40
2019-02-14T04:51:11.492Z,32.38
2019-02-14T04:53:39.758Z,19.48
2019-02-14T04:56:08.055Z,31.12
2019-02-14T04:58:36.321Z,28.40
2019-02-14T05:01:04.584Z,42.60
2019-02-14T05:03:32.834Z,15.90
2019-02-14T05:06:01.645Z,21.02
2019-02-14T05:08:30.033Z,31.65
2019-02-14T05:10:58.322Z,25.70
2019-02-14T05:13:26.571Z,14.93
2019-02-14T05:15:54.892Z,17.92
2019-02-14T05:18:23.150Z,34.63
2019-02-14T05:20:51.404Z,18.55
2019-02-14T05:23:19.692Z,26.42
2019-02-14T05:25:47.942Z,90.30
2019-02-14T05:28:16.230Z,21.60
2019-02-14T05:30:44.551Z,17.12
2019-02-14T05:33:12.795Z,17.95
2019-02-14T05:35:41.061Z,24.72
2019-02-14T05:38:09.327Z,15.88
2019-02-14T05:40:37.583Z,14.30
2019-02-14T05:43:05.865Z,18.85
2019-02-14T05:45:34.111Z,18.67
2019-02-14T05:48:02.394Z,16.67
2019-02-14T05:50:30.646Z,16.17
2019-02-14T05:52:58.933Z,16.37
2019-02-14T05:55:27.185Z,21.35
2019-02-14T05:57:55.472Z,15.18
2019-02-14T06:00:23.821Z,18.98
2019-02-14T06:02:52.071Z,20.12
2019-02-14T06:05:20.392Z,18.57
2019-02-14T06:07:48.646Z,17.37
2019-02-14T06:10:16.906Z,18.32
2019-02-14T06:12:45.194Z,12.60
2019-02-14T06:15:13.812Z,15.85
2019-02-14T06:17:42.088Z,17.07
2019-02-14T06:20:13.324Z,15.68
2019-02-14T06:22:41.611Z,17.50
2019-02-14T06:25:11.011Z,16.77
2019-02-14T06:27:39.271Z,14.98
2019-02-14T06:30:10.401Z,17.20
2019-02-14T06:32:38.663Z,18.23
2019-02-14T06:35:08.521Z,20.25
2019-02-14T06:37:36.776Z,18.17
2019-02-14T06:40:08.079Z,20.97
2019-02-14T06:42:36.368Z,20.82
2019-02-14T06:45:07.076Z,28.83
2019-02-14T06:47:35.334Z,25.17
2019-02-14T06:50:03.613Z,19.77
2019-02-14T06:52:31.878Z,19.05
2019-02-14T06:55:00.286Z,19.57
2019-02-14T06:57:28.508Z,16.32
2019-02-14T06:59:56.755Z,18.25
2019-02-14T07:02:25.046Z,20.60
2019-02-14T07:04:53.301Z,25.20
2019-02-14T07:07:21.569Z,16.25
2019-02-14T07:09:49.849Z,17.30
2019-02-14T07:12:18.094Z,19.52
2019-02-14T07:14:46.381Z,14.93
2019-02-14T07:17:14.634Z,17.92
2019-02-14T07:19:42.913Z,18.55
2019-02-14T07:22:11.168Z,22.82
2019-02-14T07:24:39.470Z,17.32
2019-02-14T07:27:07.729Z,32.40
2019-02-14T07:29:35.992Z,19.90
2019-02-14T07:32:04.321Z,17.37
2019-02-14T07:34:32.577Z,20.43
2019-02-14T07:37:00.825Z,16.95
2019-02-14T07:39:29.116Z,19.75
2019-02-14T07:41:57.367Z,17.55
2019-02-14T07:44:25.686Z,17.00
2019-02-14T07:46:53.942Z,16.15
2019-02-14T07:49:22.188Z,19.30
2019-02-14T07:51:50.453Z,23.07
2019-02-14T07:54:18.726Z,19.15
2019-02-14T07:56:47.014Z,15.83
2019-02-14T07:59:15.269Z,20.23
2019-02-14T08:01:43.563Z,18.27
2019-02-14T08:04:11.815Z,22.62
2019-02-14T08:06:40.073Z,22.30
2019-02-14T08:09:08.355Z,19.75
2019-02-14T08:11:36.619Z,18.82
2019-02-14T08:14:04.913Z,22.40
2019-02-14T08:16:33.203Z,17.73
2019-02-14T08:19:01.470Z,16.65
2019-02-14T08:21:29.720Z,18.37
2019-02-14T08:23:58.009Z,18.10
2019-02-14T08:26:26.266Z,21.10
2019-02-14T08:28:54.547Z,24.52
2019-02-14T08:31:22.820Z,43.85
2019-02-14T08:33:51.173Z,30.60
2019-02-14T08:36:19.530Z,20.00
2019-02-14T08:38:47.818Z,18.32
2019-02-14T08:41:16.074Z,17.45
2019-02-14T08:43:44.338Z,15.72
2019-02-14T08:46:13.482Z,14.87
2019-02-14T08:48:41.752Z,18.17
2019-02-14T08:51:10.009Z,23.75
2019-02-14T08:53:38.294Z,26.68
2019-02-14T08:56:06.597Z,23.25
2019-02-14T08:58:34.847Z,16.70
2019-02-14T09:01:03.101Z,19.90
2019-02-14T09:03:31.383Z,17.17
2019-02-14T09:05:59.660Z,25.20
2019-02-14T09:08:27.917Z,18.25
2019-02-14T09:10:56.180Z,19.50
2019-02-14T09:13:24.455Z,25.30
2019-02-14T09:15:52.718Z,23.60
2019-02-14T09:18:21.007Z,19.30
2019-02-14T09:20:49.257Z,18.50
2019-02-14T09:23:17.531Z,19.98
2019-02-14T09:25:45.800Z,20.12
2019-02-14T09:28:14.052Z,16.55
2019-02-14T09:30:42.735Z,20.00
2019-02-14T09:33:11.062Z,19.15
2019-02-14T09:35:39.316Z,19.00
2019-02-14T09:38:07.611Z,20.75
2019-02-14T09:40:35.903Z,19.73
2019-02-14T09:43:04.176Z,24.82
2019-02-14T09:45:32.462Z,25.35
2019-02-14T09:48:00.770Z,21.23
2019-02-14T09:50:29.033Z,18.85
2019-02-14T09:52:57.296Z,18.30
2019-02-14T09:55:25.585Z,20.60
2019-02-14T09:57:53.856Z,31.25
2019-02-14T10:00:22.139Z,21.70
2019-02-14T10:02:50.439Z,24.05
2019-02-14T10:05:18.688Z,33.60
2019-02-14T10:07:46.983Z,57.15
2019-02-14T10:10:19.775Z,37.13
2019-02-14T10:12:48.079Z,27.45
2019-02-14T10:15:16.333Z,30.95
2019-02-14T10:17:44.599Z,29.85
2019-02-14T10:20:16.998Z,22.10
2019-02-14T10:22:45.243Z,51.90
2019-02-14T10:25:13.836Z,30.75
2019-02-14T10:27:42.315Z,40.03
2019-02-14T10:30:13.564Z,28.98
2019-02-14T10:32:41.818Z,24.35
2019-02-14T10:35:10.084Z,23.87
2019-02-14T10:37:38.372Z,23.30
2019-02-14T10:40:12.702Z,23.65
2019-02-14T10:42:40.968Z,27.15
2019-02-14T10:45:20.895Z,34.15
2019-02-14T10:47:49.198Z,23.27
2019-02-14T10:50:17.464Z,44.63
2019-02-14T10:52:45.721Z,29.18
2019-02-14T10:55:15.022Z,21.40
2019-02-14T10:57:43.392Z,25.80
2019-02-14T11:00:22.983Z,27.02
2019-02-14T11:02:51.375Z,23.67
2019-02-14T11:05:19.805Z,58.23
2019-02-14T11:07:48.068Z,30.45
2019-02-14T11:10:16.657Z,32.25
2019-02-14T11:12:44.950Z,33.83
2019-02-14T11:15:18.789Z,36.88
2019-02-14T11:17:48.946Z,33.10
2019-02-14T11:20:18.013Z,30.52
2019-02-14T11:22:48.669Z,29.80
2019-02-14T11:25:25.656Z,25.40
2019-02-14T11:27:53.956Z,42.90
2019-02-14T11:30:22.217Z,27.22
2019-02-14T11:32:50.471Z,21.40
2019-02-14T11:35:18.772Z,27.73
2019-02-14T11:37:47.055Z,27.73
2019-02-14T11:40:15.315Z,27.93
2019-02-14T11:42:43.599Z,27.40
2019-02-14T11:45:17.633Z,23.80
2019-02-14T11:47:45.894Z,29.52
2019-02-14T11:50:14.185Z,20.72
2019-02-14T11:52:42.444Z,23.90
2019-02-14T11:55:11.244Z,22.60
2019-02-14T11:57:39.541Z,27.58
2019-02-14T12:00:14.993Z,23.02
2019-02-14T12:02:43.287Z,24.40
2019-02-14T12:05:11.554Z,51.35
2019-02-14T12:07:39.845Z,22.32
2019-02-14T12:10:13.409Z,41.63
2019-02-14T12:12:41.246Z,23.05
2019-02-14T12:15:10.912Z,23.32
2019-02-14T12:17:39.170Z,40.55
2019-02-14T12:20:12.356Z,30.60
2019-02-14T12:22:46.267Z,52.67
2019-02-14T12:25:15.720Z,30.68
2019-02-14T12:27:44.042Z,44.55
2019-02-14T12:30:14.229Z,20.72
2019-02-14T12:32:42.479Z,19.70
2019-02-14T12:35:10.776Z,19.82
2019-02-14T12:37:39.032Z,22.87
2019-02-14T12:40:10.069Z,33.00
2019-02-14T12:42:38.315Z,23.60
2019-02-14T12:45:20.236Z,23.18
2019-02-14T12:47:42.355Z,22.98
2019-02-14T12:50:10.617Z,23.65
2019-02-14T12:52:38.904Z,26.33
2019-02-14T12:55:07.160Z,27.27
2019-02-14T12:57:35.450Z,54.80
2019-02-14T13:00:05.374Z,37.73
2019-02-14T13:02:33.598Z,20.60
2019-02-14T13:05:01.852Z,25.43
2019-02-14T13:07:30.162Z,31.42
2019-02-14T13:09:58.422Z,21.57
2019-02-14T13:12:26.694Z,22.35
2019-02-14T13:14:55.005Z,20.12
2019-02-14T13:17:23.264Z,20.40
2019-02-14T13:19:51.527Z,27.95
2019-02-14T13:22:19.806Z,15.88
2019-02-14T13:24:48.106Z,20.85
2019-02-14T13:27:16.369Z,23.20
2019-02-14T13:29:44.645Z,21.25
2019-02-14T13:32:13.712Z,21.73
2019-02-14T13:34:42.087Z,25.90
2019-02-14T13:37:10.355Z,19.85
2019-02-14T13:39:38.642Z,22.58
2019-02-14T13:42:06.890Z,23.20
2019-02-14T13:44:35.189Z,22.07
2019-02-14T13:47:03.456Z,21.42
2019-02-14T13:49:32.725Z,19.37
2019-02-14T13:52:01.189Z,33.90
2019-02-14T13:54:29.471Z,27.58
2019-02-14T13:56:57.742Z,22.17
2019-02-14T13:59:26.033Z,34.08
2019-02-14T14:01:54.316Z,23.40
2019-02-14T14:04:22.603Z,24.95
2019-02-14T14:06:50.891Z,22.87
2019-02-14T14:09:19.158Z,20.52
2019-02-14T14:11:47.425Z,21.10
2019-02-14T14:14:15.714Z,21.57
2019-02-14T14:16:43.981Z,22.42
2019-02-14T14:19:12.283Z,33.00
2019-02-14T14:21:40.551Z,23.50
2019-02-14T14:24:08.821Z,19.40
2019-02-14T14:26:37.112Z,35.33
2019-02-14T14:29:05.398Z,76.30
2019-02-14T14:31:33.688Z,36.83
2019-02-14T14:34:01.956Z,30.77
2019-02-14T14:36:30.260Z,37.05
2019-02-14T14:38:58.582Z,29.72
2019-02-14T14:41:26.851Z,29.67
2019-02-14T14:43:59.516Z,22.58
2019-02-14T14:46:29.365Z,50.38
2019-02-14T14:48:57.676Z,25.35
2019-02-14T14:51:25.938Z,72.37
2019-02-14T14:53:54.205Z,59.60
2019-02-14T14:56:22.480Z,30.57
2019-02-14T14:58:50.736Z,24.70
2019-02-14T15:01:19.031Z,31.25
2019-02-14T15:03:47.320Z,26.48
2019-02-14T15:06:15.583Z,37.98
2019-02-14T15:08:43.921Z,40.43
2019-02-14T15:11:12.226Z,39.03
2019-02-14T15:13:40.493Z,56.42
2019-02-14T15:16:08.747Z,34.18
2019-02-14T15:18:37.042Z,36.33
2019-02-14T15:21:05.352Z,32.70
2019-02-14T15:23:33.597Z,33.98
2019-02-14T15:26:01.865Z,27.73
2019-02-14T15:28:30.189Z,26.68
2019-02-14T15:30:58.480Z,30.15
2019-02-14T15:33:26.747Z,54.63
2019-02-14T15:35:55.033Z,31.40
2019-02-14T15:38:23.296Z,42.33
2019-02-14T15:40:51.562Z,31.33
2019-02-14T15:43:19.821Z,43.87
2019-02-14T15:45:48.115Z,38.13
2019-02-14T15:48:16.386Z,44.10
2019-02-14T15:50:44.666Z,86.32
2019-02-14T15:53:12.930Z,59.27
2019-02-14T15:55:43.655Z,83.33
2019-02-14T15:58:11.390Z,82.90
2019-02-14T16:00:39.677Z,44.83
2019-02-14T16:03:07.953Z,57.00
2019-02-14T16:05:38.062Z,42.23
2019-02-14T16:08:06.230Z,56.55
2019-02-14T16:10:34.532Z,43.15
2019-02-14T16:13:02.788Z,32.17
2019-02-14T16:15:33.632Z,68.10
2019-02-14T16:18:01.635Z,30.25
2019-02-14T16:20:29.999Z,33.88
2019-02-14T16:22:58.278Z,39.78
2019-02-14T16:25:28.225Z,38.83
2019-02-14T16:27:56.604Z,56.73
2019-02-14T16:30:24.866Z,63.52
2019-02-14T16:32:53.175Z,29.18
2019-02-14T16:35:21.502Z,25.27
2019-02-14T16:37:50.533Z,37.80
2019-02-14T16:40:27.562Z,31.52
2019-02-14T16:42:49.016Z,34.65
2019-02-14T16:45:17.306Z,46.48
2019-02-14T16:47:45.569Z,31.70
2019-02-14T16:50:13.844Z,35.10
2019-02-14T16:52:42.138Z,54.88
2019-02-14T16:55:10.425Z,57.48
2019-02-14T16:57:38.691Z,80.38
2019-02-14T17:00:10.385Z,78.60
2019-02-14T17:02:38.691Z,49.25
2019-02-14T17:05:06.963Z,38.25
2019-02-14T17:07:35.221Z,74.32
2019-02-14T17:10:03.848Z,86.42
2019-02-14T17:12:32.110Z,71.22
2019-02-14T17:15:00.440Z,60.83
2019-02-14T17:17:28.716Z,41.73
2019-02-14T17:19:57.004Z,43.38
2019-02-14T17:22:25.294Z,47.23
2019-02-14T17:24:53.549Z,46.33
2019-02-14T17:27:21.801Z,35.65
2019-02-14T17:29:50.111Z,136.20
2019-02-14T17:32:18.376Z,45.75
2019-02-14T17:34:46.661Z,67.03
2019-02-14T17:37:14.930Z,45.55
2019-02-14T17:39:43.224Z,49.10
2019-02-14T17:42:11.484Z,73.10
2019-02-14T17:44:39.777Z,32.93
2019-02-14T17:47:08.125Z,51.70
2019-02-14T17:49:36.414Z,43.10
2019-02-14T17:52:04.671Z,51.45
2019-02-14T17:54:32.965Z,132.55
2019-02-14T17:57:01.224Z,43.42
2019-02-14T17:59:29.498Z,31.23
2019-02-14T18:01:57.760Z,44.50
2019-02-14T18:04:26.037Z,28.77
2019-02-14T18:06:54.318Z,43.13
2019-02-14T18:09:22.607Z,54.58
2019-02-14T18:11:50.866Z,50.17
2019-02-14T18:14:19.183Z,36.73
2019-02-14T18:16:47.443Z,35.78
2019-02-14T18:19:15.706Z,46.58
2019-02-14T18:21:44.042Z,73.57
2019-02-14T18:24:12.298Z,52.83
2019-02-14T18:26:52.536Z,85.12
2019-02-14T18:29:28.381Z,54.53
2019-02-14T18:31:56.652Z,45.25
2019-02-14T18:34:24.909Z,54.50
2019-02-14T18:36:53.203Z,30.50
2019-02-14T18:39:21.478Z,42.70
2019-02-14T18:41:49.799Z,80.15
2019-02-14T18:44:18.525Z,62.78
2019-02-14T18:46:46.782Z,75.28
2019-02-14T18:49:15.081Z,30.48
2019-02-14T18:51:43.347Z,80.92
2019-02-14T18:54:11.611Z,89.45
2019-02-14T18:56:39.890Z,86.08
2019-02-14T18:59:08.172Z,59.10
2019-02-14T19:01:36.434Z,68.50
2019-02-14T19:04:04.753Z,37.35
2019-02-14T19:06:33.015Z,32.23
2019-02-14T19:09:01.451Z,85.17
2019-02-14T19:11:29.875Z,34.23
2019-02-14T19:13:58.420Z,29.15
2019-02-14T19:16:26.679Z,19.60
2019-02-14T19:18:54.938Z,20.37
2019-02-14T19:21:23.213Z,22.73
2019-02-14T19:23:51.491Z,35.75
2019-02-14T19:26:19.788Z,55.70
2019-02-14T19:28:48.047Z,133.97
2019-02-14T19:31:16.364Z,35.45
2019-02-14T19:33:44.593Z,34.48
2019-02-14T19:36:12.881Z,50.80
2019-02-14T19:38:41.146Z,34.90
2019-02-14T19:41:09.433Z,29.40
2019-02-14T19:43:37.740Z,74.77
2019-02-14T19:46:06.003Z,38.67
2019-02-14T19:48:34.269Z,31.35
2019-02-14T19:51:02.842Z,47.55
2019-02-14T19:53:31.100Z,65.08
2019-02-14T19:55:59.373Z,111.15
2019-02-14T19:58:27.669Z,99.52
2019-02-14T20:00:55.931Z,37.30
2019-02-14T20:03:24.237Z,108.57
2019-02-14T20:05:52.504Z,78.10
2019-02-14T20:08:20.771Z,53.28
2019-02-14T20:10:49.469Z,94.97
2019-02-14T20:13:17.708Z,61.05
2019-02-14T20:15:45.972Z,26.15
2019-02-14T20:18:14.297Z,30.30
2019-02-14T20:20:42.548Z,70.32
2019-02-14T20:23:10.809Z,52.67
2019-02-14T20:25:39.113Z,37.55
2019-02-14T20:28:07.446Z,44.80
2019-02-14T20:30:35.705Z,28.00
2019-02-14T20:33:05.000Z,27.62
2019-02-14T20:35:33.458Z,44.60
2019-02-14T20:38:01.762Z,65.95
2019-02-14T20:40:31.969Z,52.33
2019-02-14T20:43:00.011Z,56.00
2019-02-14T20:45:28.277Z,48.68
2019-02-14T20:47:57.363Z,38.50
2019-02-14T20:50:25.710Z,65.03
2019-02-14T20:52:53.980Z,50.73
2019-02-14T20:55:25.150Z,44.80
2019-02-14T20:57:53.587Z,45.33
2019-02-14T21:00:35.495Z,61.55
2019-02-14T21:03:03.754Z,54.58
2019-02-14T21:05:32.042Z,64.20
2019-02-14T21:08:00.312Z,36.85
2019-02-14T21:10:28.653Z,50.38
2019-02-14T21:12:56.931Z,51.42
2019-02-14T21:15:25.197Z,71.72
2019-02-14T21:17:53.477Z,63.00
2019-02-14T21:20:21.762Z,58.87
2019-02-14T21:22:50.021Z,58.60
2019-02-14T21:25:22.455Z,31.05
2019-02-14T21:27:48.370Z,28.85
2019-02-14T21:30:18.111Z,28.07
2019-02-14T21:32:46.483Z,27.40
2019-02-14T21:35:15.109Z,51.20
2019-02-14T21:37:43.425Z,42.90
2019-02-14T21:40:15.745Z,34.15
2019-02-14T21:42:44.043Z,54.73
2019-02-14T21:45:14.469Z,63.17
2019-02-14T21:47:42.741Z,47.30
2019-02-14T21:50:12.050Z,64.60
2019-02-14T21:52:40.441Z,46.68
2019-02-14T21:55:10.637Z,39.10
2019-02-14T21:57:38.935Z,38.02
2019-02-14T22:00:14.111Z,32.42
2019-02-14T22:02:42.908Z,37.55
2019-02-14T22:05:11.540Z,41.98
2019-02-14T22:07:39.817Z,39.45
2019-02-14T22:10:10.512Z,42.40
2019-02-14T22:12:41.836Z,50.23
2019-02-14T22:15:14.475Z,56.85
2019-02-14T22:17:42.756Z,60.58
2019-02-14T22:20:11.049Z,47.83
2019-02-14T22:22:39.340Z,42.17
2019-02-14T22:25:10.038Z,45.48
2019-02-14T22:27:38.519Z,44.75
2019-02-14T22:30:11.055Z,41.92
2019-02-14T22:32:39.344Z,47.50
2019-02-14T22:35:07.643Z,45.25
2019-02-14T22:37:35.904Z,45.25
2019-02-14T22:40:06.046Z,38.53
2019-02-14T22:42:34.304Z,36.10
2019-02-14T22:45:02.565Z,42.73
2019-02-14T22:47:30.858Z,39.73
2019-02-14T22:49:59.161Z,38.65
2019-02-14T22:52:27.470Z,35.78
2019-02-14T22:54:55.743Z,37.13
2019-02-14T22:57:24.073Z,33.78
2019-02-14T22:59:52.361Z,35.10
2019-02-14T23:02:20.707Z,29.50
2019-02-14T23:04:49.004Z,33.02
2019-02-14T23:07:17.265Z,26.93
2019-02-14T23:09:45.618Z,29.90
2019-02-14T23:12:17.254Z,45.92
2019-02-14T23:14:45.565Z,43.68
2019-02-14T23:17:13.873Z,61.90
2019-02-14T23:19:42.136Z,48.00
2019-02-14T23:22:10.389Z,26.90
2019-02-14T23:24:38.722Z,30.52
2019-02-14T23:27:07.053Z,30.25
2019-02-14T23:29:35.313Z,34.85
2019-02-14T23:32:03.752Z,32.33
2019-02-14T23:34:32.007Z,27.87
2019-02-14T23:37:00.277Z,42.67
2019-02-14T23:39:28.568Z,33.90
2019-02-14T23:41:56.826Z,33.60
2019-02-14T23:44:25.124Z,59.08
2019-02-14T23:46:53.374Z,34.90
2019-02-14T23:49:21.701Z,27.02
2019-02-14T23:51:49.968Z,25.08
2019-02-14T23:54:18.301Z,26.80
2019-02-14T23:56:46.598Z,26.23
2019-02-14T23:59:14.855Z,27.55
